Time;durP1;ratioP1;P1;durP2;ratioP2;P2;SDS_P1;SDS_P2;PMS_P1;PMS_P2;Temp;Humidity;BMP_temperature;BMP_pressure;BME280_temperature;BME280_humidity;BME280_pressure;Samples;Min_cycle;Max_cycle;Signal;HPM_P1;HPM_P2
2023/01/11 00:01:37;;;;;;;10.43;5.57;;;5.90;99.90;;;;;;4974698;28;20030;-70
2023/01/11 00:04:02;;;;;;;12.35;6.15;;;5.90;99.90;;;;;;4974917;28;20139;-69
2023/01/11 00:06:28;;;;;;;17.92;6.93;;;5.90;99.90;;;;;;4974629;28;20078;-69
2023/01/11 00:08:55;;;;;;;12.90;6.55;;;6.00;99.90;;;;;;4975006;28;20026;-69
2023/01/11 00:11:20;;;;;;;11.85;6.85;;;6.00;99.90;;;;;;4974901;28;20058;-69
2023/01/11 00:13:46;;;;;;;19.20;6.80;;;6.00;99.90;;;;;;4974469;28;20030;-69
2023/01/11 00:16:12;;;;;;;10.38;7.07;;;6.00;99.90;;;;;;4974866;28;20027;-69
2023/01/11 00:18:39;;;;;;;11.70;6.90;;;6.10;99.90;;;;;;4974614;28;20030;-69
2023/01/11 00:21:06;;;;;;;11.50;7.05;;;6.10;99.90;;;;;;4974713;28;20118;-70
2023/01/11 00:23:32;;;;;;;14.93;7.82;;;6.20;99.90;;;;;;4977344;28;20023;-69
2023/01/11 00:25:58;;;;;;;9.25;7.40;;;6.20;99.90;;;;;;4978203;28;20062;-69
2023/01/11 00:28:23;;;;;;;14.18;6.85;;;6.20;99.90;;;;;;4978282;28;20146;-70
2023/01/11 00:30:49;;;;;;;15.10;7.18;;;6.20;99.90;;;;;;4978448;28;20023;-70
2023/01/11 00:33:14;;;;;;;9.57;6.40;;;6.20;99.90;;;;;;4978309;28;20034;-69
2023/01/11 00:35:40;;;;;;;14.57;8.05;;;6.20;99.90;;;;;;4977940;28;20035;-69
2023/01/11 00:38:06;;;;;;;13.23;7.35;;;6.20;99.90;;;;;;4978191;28;20031;-69
2023/01/11 00:40:31;;;;;;;10.52;7.15;;;6.20;99.90;;;;;;4977780;28;20050;-70
2023/01/11 00:48:25;;;;;;;13.98;8.38;;;6.20;99.90;;;;;;4977940;28;20410;-69
2023/01/11 00:50:54;;;;;;;14.63;10.25;;;6.20;99.90;;;;;;4978005;28;20023;-70
2023/01/11 00:53:19;;;;;;;14.07;9.20;;;6.20;99.90;;;;;;4977546;28;20399;-69
2023/01/11 00:55:45;;;;;;;19.05;9.60;;;6.30;99.90;;;;;;4977845;28;20033;-69
2023/01/11 00:58:11;;;;;;;17.77;9.35;;;6.30;99.90;;;;;;4977923;28;20055;-69
2023/01/11 01:00:36;;;;;;;15.07;9.57;;;6.30;99.90;;;;;;4977593;28;20035;-69
2023/01/11 01:03:02;;;;;;;15.38;9.00;;;6.30;99.90;;;;;;4977576;28;20114;-69
2023/01/11 01:05:27;;;;;;;15.63;10.23;;;6.40;99.90;;;;;;4977656;28;20435;-69
2023/01/11 01:07:53;;;;;;;13.43;9.55;;;6.40;99.90;;;;;;4977811;28;20031;-69
2023/01/11 01:10:19;;;;;;;16.33;9.98;;;6.50;99.90;;;;;;4977842;28;20403;-69
2023/01/11 01:15:29;;;;;;;15.50;11.50;;;6.50;99.90;;;;;;4978276;28;20066;-69
2023/01/11 01:17:55;;;;;;;19.08;11.57;;;6.60;99.90;;;;;;4977525;28;20063;-69
2023/01/11 01:20:22;;;;;;;17.85;12.38;;;6.60;99.90;;;;;;4977726;28;20061;-69
2023/01/11 01:22:47;;;;;;;22.85;14.00;;;6.60;99.90;;;;;;4977469;28;20026;-70
2023/01/11 01:25:13;;;;;;;19.50;12.40;;;6.60;99.90;;;;;;4977230;28;20446;-69
2023/01/11 01:27:39;;;;;;;16.17;12.15;;;6.70;99.90;;;;;;4977517;28;20034;-69
2023/01/11 01:30:05;;;;;;;20.00;12.13;;;6.70;99.90;;;;;;4977146;28;20119;-69
2023/01/11 01:32:31;;;;;;;19.65;13.85;;;6.80;99.90;;;;;;4977079;28;20517;-70
2023/01/11 01:34:57;;;;;;;18.65;14.18;;;6.70;99.90;;;;;;4976991;28;20031;-69
2023/01/11 01:37:22;;;;;;;18.52;13.02;;;6.70;99.90;;;;;;4977079;28;20470;-70
2023/01/11 01:39:48;;;;;;;20.45;12.30;;;6.80;99.90;;;;;;4976909;28;20018;-69
2023/01/11 01:42:18;;;;;;;21.88;12.90;;;6.80;99.90;;;;;;4976811;28;20034;-69
2023/01/11 01:45:06;;;;;;;23.13;13.93;;;6.80;99.90;;;;;;4976995;28;20030;-70
2023/01/11 01:47:41;;;;;;;23.75;15.43;;;6.80;99.90;;;;;;4977053;28;20022;-69
2023/01/11 01:50:13;;;;;;;23.13;15.10;;;6.90;99.90;;;;;;4976932;28;20374;-69
2023/01/11 01:52:39;;;;;;;29.00;16.85;;;6.90;99.90;;;;;;4984007;23;20498;-69
2023/01/11 01:55:09;;;;;;;24.45;16.13;;;6.90;99.90;;;;;;4976773;28;20081;-69
2023/01/11 01:57:38;;;;;;;29.58;17.90;;;6.90;99.90;;;;;;4976906;28;20054;-69
2023/01/11 02:00:07;;;;;;;24.55;17.27;;;7.00;99.90;;;;;;4976492;28;20030;-70
2023/01/11 02:02:35;;;;;;;22.08;16.58;;;6.90;99.90;;;;;;4976553;28;20019;-70
2023/01/11 02:05:01;;;;;;;26.83;17.17;;;7.00;99.90;;;;;;4976693;28;20102;-70
2023/01/11 02:07:33;;;;;;;24.58;17.67;;;7.00;99.90;;;;;;4976520;28;20574;-70
2023/01/11 02:10:17;;;;;;;24.23;16.83;;;7.00;99.90;;;;;;4976448;28;20037;-69
2023/01/11 02:12:51;;;;;;;22.73;16.30;;;7.00;99.90;;;;;;4976506;28;20029;-69
2023/01/11 02:15:19;;;;;;;29.92;18.90;;;7.10;99.90;;;;;;4976165;28;20145;-69
2023/01/11 02:17:45;;;;;;;27.40;18.27;;;7.10;99.90;;;;;;4976112;28;20101;-69
2023/01/11 02:20:37;;;;;;;24.80;18.42;;;7.20;99.90;;;;;;4975947;28;20502;-70
2023/01/11 02:23:41;;;;;;;28.65;18.35;;;7.20;99.90;;;;;;4956862;28;20038;-69
2023/01/11 02:26:13;;;;;;;24.42;18.13;;;7.30;99.90;;;;;;4957146;28;20024;-69
2023/01/11 02:29:14;;;;;;;28.73;19.33;;;7.40;99.90;;;;;;4974578;28;20050;-69
2023/01/11 02:31:54;;;;;;;29.48;19.55;;;7.30;99.90;;;;;;4975541;28;20046;-70
2023/01/11 02:34:40;;;;;;;29.25;19.38;;;7.40;99.90;;;;;;4957144;29;20027;-70
2023/01/11 02:37:19;;;;;;;30.65;19.95;;;7.40;99.90;;;;;;4956894;29;20051;-70
2023/01/11 02:39:57;;;;;;;28.13;19.02;;;7.50;99.90;;;;;;4956797;29;20479;-69
2023/01/11 02:45:18;;;;;;;30.63;19.88;;;7.50;99.90;;;;;;4975042;28;20030;-69
2023/01/11 02:48:01;;;;;;;29.27;19.50;;;7.60;99.90;;;;;;4974160;28;20390;-69
2023/01/11 02:50:28;;;;;;;29.55;19.25;;;7.70;99.90;;;;;;4975653;28;20030;-70
2023/01/11 02:53:14;;;;;;;29.85;20.20;;;7.70;99.90;;;;;;4975498;28;20035;-69
2023/01/11 02:55:48;;;;;;;34.15;21.73;;;7.70;99.90;;;;;;4976052;28;20467;-69
2023/01/11 02:58:15;;;;;;;29.00;19.80;;;7.70;99.90;;;;;;4975496;28;20033;-69
2023/01/11 03:00:42;;;;;;;27.92;20.25;;;7.80;99.90;;;;;;4975379;28;20023;-69
2023/01/11 03:03:16;;;;;;;29.17;20.95;;;7.80;99.90;;;;;;4975693;28;20023;-69
2023/01/11 03:05:50;;;;;;;34.38;19.85;;;7.90;99.90;;;;;;4975673;28;20467;-69
2023/01/11 03:08:39;;;;;;;25.50;17.13;;;7.90;99.90;;;;;;4975517;28;20059;-69
2023/01/11 03:11:10;;;;;;;26.80;18.42;;;7.90;99.90;;;;;;4975388;28;20564;-70
2023/01/11 03:14:06;;;;;;;32.10;20.05;;;8.00;99.90;;;;;;4975298;28;20034;-69
2023/01/11 03:16:54;;;;;;;27.83;18.45;;;8.00;99.90;;;;;;4975623;28;20382;-69
2023/01/11 03:20:06;;;;;;;21.13;17.38;;;8.00;99.90;;;;;;4975089;28;20478;-69
2023/01/11 03:22:43;;;;;;;31.48;19.15;;;8.00;99.90;;;;;;4974011;28;20061;-69
2023/01/11 03:25:22;;;;;;;28.90;19.38;;;8.10;99.90;;;;;;4975432;28;20102;-70
2023/01/11 03:28:06;;;;;;;26.52;17.55;;;8.10;99.90;;;;;;4975819;28;20049;-69
2023/01/11 03:30:41;;;;;;;32.30;18.80;;;8.20;99.90;;;;;;4975060;28;20081;-70
2023/01/11 03:33:49;;;;;;;42.30;19.38;;;8.20;99.90;;;;;;4975438;28;20037;-70
2023/01/11 03:36:29;;;;;;;32.65;20.85;;;8.30;99.90;;;;;;4972242;28;20035;-69
2023/01/11 03:39:20;;;;;;;37.10;21.85;;;8.20;99.90;;;;;;4973801;28;20029;-70
2023/01/11 03:41:48;;;;;;;29.23;20.75;;;8.20;99.90;;;;;;4974650;28;20034;-70
2023/01/11 03:44:17;;;;;;;32.92;21.48;;;8.20;99.90;;;;;;4975282;28;20101;-70
2023/01/11 03:46:50;;;;;;;30.05;19.45;;;8.20;99.90;;;;;;4973664;28;20027;-70
2023/01/11 03:49:30;;;;;;;26.67;18.85;;;8.10;99.90;;;;;;4975175;28;20102;-70
2023/01/11 03:51:59;;;;;;;26.70;17.20;;;8.20;99.90;;;;;;4981706;23;20046;-70
2023/01/11 03:54:26;;;;;;;37.28;19.55;;;8.30;99.90;;;;;;4975107;28;20027;-70
2023/01/11 03:56:55;;;;;;;28.63;18.38;;;8.30;99.90;;;;;;4974748;28;20073;-69
2023/01/11 03:59:21;;;;;;;34.97;19.75;;;8.30;99.90;;;;;;4979002;28;20390;-69
2023/01/11 04:01:46;;;;;;;28.15;17.23;;;8.30;99.90;;;;;;4978993;28;20050;-69
2023/01/11 04:04:12;;;;;;;26.92;17.70;;;8.30;99.90;;;;;;4978956;28;20034;-69
2023/01/11 04:06:38;;;;;;;32.75;19.33;;;8.40;99.90;;;;;;4978907;28;20034;-69
2023/01/11 04:09:04;;;;;;;32.63;19.75;;;8.40;99.90;;;;;;4978868;28;20118;-69
2023/01/11 04:11:30;;;;;;;28.80;18.67;;;8.40;99.90;;;;;;4978875;28;20038;-69
2023/01/11 04:13:55;;;;;;;31.33;19.40;;;8.40;99.90;;;;;;4979193;28;20031;-69
2023/01/11 04:16:21;;;;;;;33.05;18.38;;;8.40;99.90;;;;;;4977372;28;20038;-69
2023/01/11 04:18:46;;;;;;;34.28;18.73;;;8.40;99.90;;;;;;4978660;28;20394;-69
2023/01/11 04:21:12;;;;;;;29.70;17.05;;;8.40;99.90;;;;;;4978346;28;20054;-69
2023/01/11 04:23:37;;;;;;;31.10;15.50;;;8.40;99.90;;;;;;4978355;28;20054;-69
2023/01/11 04:26:03;;;;;;;28.67;14.68;;;8.50;99.90;;;;;;4978951;28;20034;-69
2023/01/11 04:28:29;;;;;;;26.00;13.90;;;8.50;99.90;;;;;;4978265;28;20130;-69
2023/01/11 04:30:54;;;;;;;24.65;12.40;;;8.60;99.90;;;;;;4978657;28;20018;-69
2023/01/11 04:33:20;;;;;;;27.42;10.98;;;8.70;99.90;;;;;;4978203;28;20030;-69
2023/01/11 04:35:45;;;;;;;24.40;11.65;;;8.70;99.90;;;;;;4978473;28;20027;-69
2023/01/11 04:38:11;;;;;;;24.10;12.02;;;8.70;99.90;;;;;;4978441;28;20035;-69
2023/01/11 04:40:36;;;;;;;26.30;11.25;;;8.70;99.90;;;;;;4978008;28;20058;-69
2023/01/11 04:43:02;;;;;;;22.67;10.68;;;8.70;99.90;;;;;;4978270;28;20143;-69
2023/01/11 04:45:29;;;;;;;19.65;10.25;;;8.70;99.90;;;;;;4978277;28;20027;-69
2023/01/11 04:47:56;;;;;;;22.33;10.48;;;8.80;99.90;;;;;;4977866;28;20030;-69
2023/01/11 04:50:26;;;;;;;31.88;10.45;;;8.80;99.90;;;;;;4976373;28;20023;-69
2023/01/11 04:52:52;;;;;;;23.75;9.73;;;8.70;99.90;;;;;;4977380;28;20517;-69
2023/01/11 04:55:18;;;;;;;20.45;7.90;;;8.80;99.90;;;;;;4977684;28;20023;-69
2023/01/11 04:57:44;;;;;;;24.00;6.95;;;8.80;99.90;;;;;;4978050;28;20061;-69
2023/01/11 05:00:11;;;;;;;18.38;6.70;;;8.80;99.90;;;;;;4977734;28;20413;-69
2023/01/11 05:02:37;;;;;;;24.42;6.00;;;8.90;99.90;;;;;;4977412;28;20034;-70
2023/01/11 05:05:04;;;;;;;18.67;6.40;;;8.90;99.90;;;;;;4977658;28;20498;-69
2023/01/11 05:07:30;;;;;;;30.63;6.43;;;8.90;99.90;;;;;;4977588;28;20487;-70
2023/01/11 05:09:55;;;;;;;24.20;6.72;;;8.90;99.90;;;;;;4976561;28;20033;-69
2023/01/11 05:12:21;;;;;;;38.72;7.53;;;8.80;99.90;;;;;;4977538;28;20037;-70
2023/01/11 05:14:46;;;;;;;44.25;6.35;;;8.70;99.90;;;;;;4977558;28;20042;-69
2023/01/11 05:17:13;;;;;;;20.50;5.55;;;8.70;99.90;;;;;;4977674;28;20042;-69
2023/01/11 05:19:39;;;;;;;27.90;5.45;;;8.60;99.90;;;;;;4977500;28;20034;-69
2023/01/11 05:22:05;;;;;;;32.90;6.00;;;8.60;99.90;;;;;;4977208;28;20027;-69
2023/01/11 05:24:30;;;;;;;42.20;6.15;;;8.60;99.90;;;;;;4977338;28;20034;-69
2023/01/11 05:26:56;;;;;;;35.55;5.65;;;8.60;99.90;;;;;;4977351;28;20027;-69
2023/01/11 05:29:21;;;;;;;31.20;4.82;;;8.60;99.90;;;;;;4977320;28;20025;-69
2023/01/11 05:31:47;;;;;;;52.05;6.78;;;8.60;99.90;;;;;;4977170;28;20035;-69
2023/01/11 05:34:13;;;;;;;37.70;5.70;;;8.60;99.90;;;;;;4977278;28;20030;-69
2023/01/11 05:36:39;;;;;;;57.00;5.88;;;8.60;99.90;;;;;;4976818;28;20042;-69
2023/01/11 05:39:05;;;;;;;37.25;6.20;;;8.60;99.90;;;;;;4977326;28;20490;-69
2023/01/11 05:41:31;;;;;;;48.80;6.78;;;8.60;99.90;;;;;;4976750;28;20069;-69
2023/01/11 05:46:42;;;;;;;;;;;8.60;99.90;;;;;;4977573;28;20054;-69
2023/01/11 05:49:08;;;;;;;38.72;4.70;;;8.60;99.90;;;;;;4977142;28;19956;-69
2023/01/11 05:51:34;;;;;;;26.38;5.18;;;8.50;99.90;;;;;;4976947;28;20557;-69
2023/01/11 05:54:02;;;;;;;38.70;5.50;;;8.50;99.90;;;;;;4977289;28;20034;-69
2023/01/11 05:56:28;;;;;;;64.32;6.45;;;8.50;99.90;;;;;;4977351;28;20031;-67
2023/01/11 05:58:54;;;;;;;48.58;6.88;;;8.50;99.90;;;;;;4976530;28;20085;-69
2023/01/11 06:01:22;;;;;;;41.42;5.53;;;8.40;99.90;;;;;;4976458;28;20034;-70
2023/01/11 06:03:51;;;;;;;49.60;5.72;;;8.40;99.90;;;;;;4976726;28;20114;-69
2023/01/11 06:06:18;;;;;;;46.20;5.72;;;8.40;99.90;;;;;;4976618;28;20031;-69
2023/01/11 06:08:43;;;;;;;54.63;6.00;;;8.30;99.90;;;;;;4976651;28;20387;-69
2023/01/11 06:11:09;;;;;;;45.50;5.70;;;8.30;99.90;;;;;;4976493;28;20033;-69
2023/01/11 06:13:35;;;;;;;54.28;7.45;;;8.30;99.90;;;;;;4976259;28;20031;-69
2023/01/11 06:16:06;;;;;;;48.45;5.43;;;8.20;99.90;;;;;;4976480;28;20061;-69
2023/01/11 06:18:40;;;;;;;40.92;5.47;;;8.20;99.90;;;;;;4976404;28;20117;-69
2023/01/11 06:21:06;;;;;;;63.85;7.63;;;8.20;99.90;;;;;;4976243;28;20035;-69
2023/01/11 06:23:34;;;;;;;48.47;6.88;;;8.20;99.90;;;;;;4976481;28;20031;-69
2023/01/11 06:26:01;;;;;;;52.47;6.93;;;8.10;99.90;;;;;;4976508;28;20023;-69
2023/01/11 06:28:27;;;;;;;50.63;5.95;;;8.20;99.90;;;;;;4976052;28;20478;-69
2023/01/11 06:30:54;;;;;;;48.60;6.50;;;8.20;99.90;;;;;;4976438;28;20058;-69
2023/01/11 06:33:21;;;;;;;78.60;8.52;;;8.10;99.90;;;;;;4975452;28;20035;-69
2023/01/11 06:35:46;;;;;;;71.18;8.77;;;8.10;99.90;;;;;;4975958;28;20470;-69
2023/01/11 06:38:14;;;;;;;55.92;6.03;;;8.20;99.90;;;;;;4976310;28;20026;-69
2023/01/11 06:40:40;;;;;;;65.70;8.35;;;8.20;99.90;;;;;;4975896;28;20030;-69
2023/01/11 06:43:07;;;;;;;57.20;7.85;;;8.10;99.90;;;;;;4975839;28;20030;-69
2023/01/11 06:45:33;;;;;;;64.93;7.13;;;8.10;99.90;;;;;;4975495;28;20026;-69
2023/01/11 06:47:58;;;;;;;66.15;7.65;;;8.10;99.90;;;;;;4976505;28;20030;-69
2023/01/11 06:50:25;;;;;;;81.03;9.00;;;8.10;99.90;;;;;;4975994;28;20038;-69
2023/01/11 06:52:55;;;;;;;67.03;7.40;;;8.10;99.90;;;;;;4975698;28;20188;-69
2023/01/11 06:55:22;;;;;;;91.97;9.38;;;8.10;99.90;;;;;;4975899;28;20085;-69
2023/01/11 06:57:47;;;;;;;101.93;10.25;;;8.20;99.90;;;;;;4961182;28;20490;-69
2023/01/11 07:00:14;;;;;;;56.13;8.20;;;8.20;99.90;;;;;;4956715;29;20047;-69
2023/01/11 07:02:40;;;;;;;67.50;8.50;;;8.20;99.90;;;;;;4970324;28;20023;-69
2023/01/11 07:05:05;;;;;;;75.40;8.55;;;8.20;99.90;;;;;;4975405;28;20018;-69
2023/01/11 07:07:31;;;;;;;79.43;9.18;;;8.20;99.90;;;;;;4975664;28;20474;-69
2023/01/11 07:09:56;;;;;;;68.13;9.05;;;8.20;99.90;;;;;;4975327;28;20117;-69
2023/01/11 07:12:22;;;;;;;66.93;8.95;;;8.20;99.90;;;;;;4973971;28;20069;-69
2023/01/11 07:14:48;;;;;;;76.97;8.32;;;8.20;99.90;;;;;;4975463;28;20027;-69
2023/01/11 07:17:14;;;;;;;68.78;8.80;;;8.20;99.90;;;;;;4975208;28;20027;-69
2023/01/11 07:19:39;;;;;;;71.30;8.93;;;8.20;99.90;;;;;;4975017;28;20033;-69
2023/01/11 07:22:05;;;;;;;56.53;9.13;;;8.20;99.90;;;;;;4975150;28;20026;-69
2023/01/11 07:24:30;;;;;;;78.18;8.35;;;8.20;99.90;;;;;;4973966;28;20019;-69
2023/01/11 07:26:58;;;;;;;76.97;8.48;;;8.10;99.90;;;;;;4975434;28;20027;-69
2023/01/11 07:29:24;;;;;;;70.20;7.82;;;8.10;99.90;;;;;;4973795;28;20029;-69
2023/01/11 07:31:49;;;;;;;79.82;8.82;;;8.00;99.90;;;;;;4974837;28;20394;-69
2023/01/11 07:34:15;;;;;;;76.28;8.00;;;8.00;99.90;;;;;;4975190;28;20035;-69
2023/01/11 07:36:40;;;;;;;64.80;8.40;;;8.00;99.90;;;;;;4975069;28;20035;-69
2023/01/11 07:39:06;;;;;;;71.82;7.95;;;8.10;99.90;;;;;;4975006;28;20077;-69
2023/01/11 07:44:16;;;;;;;58.55;8.98;;;8.10;99.90;;;;;;4975227;28;20033;-69
2023/01/11 07:46:42;;;;;;;72.60;8.63;;;8.10;99.90;;;;;;4974647;28;20414;-69
2023/01/11 07:49:07;;;;;;;60.65;7.28;;;8.10;99.90;;;;;;4974979;28;20031;-69
2023/01/11 07:51:33;;;;;;;72.35;8.77;;;8.00;99.90;;;;;;4975166;28;20085;-69
2023/01/11 07:54:02;;;;;;;93.38;10.55;;;7.90;99.90;;;;;;4974663;28;20450;-68
2023/01/11 07:56:29;;;;;;;60.58;7.30;;;7.80;99.90;;;;;;4974672;28;20019;-68
2023/01/11 07:58:54;;;;;;;93.85;15.15;;;7.80;99.90;;;;;;4974793;28;20042;-68
2023/01/11 08:01:20;;;;;;;83.70;7.75;;;7.80;99.90;;;;;;4974437;28;20093;-68
2023/01/11 08:03:46;;;;;;;65.13;8.77;;;7.70;99.90;;;;;;4974680;28;20035;-68
2023/01/11 08:06:13;;;;;;;65.88;8.20;;;7.70;99.90;;;;;;4974668;28;20022;-68
2023/01/11 08:08:39;;;;;;;85.35;9.60;;;7.70;99.90;;;;;;4974597;28;20027;-67
2023/01/11 08:16:33;;;;;;;92.68;9.75;;;7.60;99.90;;;;;;4974867;28;20129;-68
2023/01/11 08:18:58;;;;;;;61.78;9.25;;;7.60;99.90;;;;;;4974263;28;20054;-67
2023/01/11 08:21:24;;;;;;;64.53;8.52;;;7.60;99.90;;;;;;4974522;28;20398;-68
2023/01/11 08:23:52;;;;;;;52.72;7.93;;;7.60;99.90;;;;;;4974462;28;20082;-68
2023/01/11 08:26:18;;;;;;;77.80;9.82;;;7.60;99.90;;;;;;4974857;28;20052;-68
2023/01/11 08:28:43;;;;;;;62.78;8.38;;;7.60;99.90;;;;;;4974465;28;20394;-68
2023/01/11 08:31:09;;;;;;;59.05;8.20;;;7.40;99.90;;;;;;4974416;28;20494;-68
2023/01/11 08:33:35;;;;;;;66.72;8.48;;;7.40;99.90;;;;;;4974168;28;20058;-68
2023/01/11 08:36:09;;;;;;;73.50;7.75;;;7.40;99.90;;;;;;4974906;28;20467;-68
2023/01/11 08:38:35;;;;;;;75.07;8.70;;;7.40;99.90;;;;;;4974198;28;20027;-68
2023/01/11 08:41:02;;;;;;;62.90;8.15;;;7.40;99.90;;;;;;4974059;28;20081;-68
2023/01/11 08:43:30;;;;;;;71.03;9.77;;;7.30;99.90;;;;;;4975185;28;20093;-68
2023/01/11 08:45:56;;;;;;;51.92;7.38;;;7.30;99.90;;;;;;4977988;28;20054;-68
2023/01/11 08:48:22;;;;;;;82.18;8.00;;;7.40;99.90;;;;;;4977943;28;20158;-68
2023/01/11 08:50:47;;;;;;;56.15;8.20;;;7.40;99.90;;;;;;4978201;28;20494;-68
2023/01/11 08:53:14;;;;;;;75.00;8.02;;;7.40;99.90;;;;;;4977854;28;20046;-68
2023/01/11 08:55:42;;;;;;;97.53;9.32;;;7.40;99.90;;;;;;4978188;28;20407;-68
2023/01/11 08:58:07;;;;;;;69.03;8.90;;;7.40;99.90;;;;;;4977609;28;20033;-68
2023/01/11 09:00:33;;;;;;;70.00;8.40;;;7.30;99.90;;;;;;4977470;28;20106;-68
2023/01/11 09:03:01;;;;;;;60.90;7.88;;;7.40;99.90;;;;;;4977395;28;20394;-68
2023/01/11 09:05:27;;;;;;;54.78;7.63;;;7.30;99.90;;;;;;4977749;28;20027;-68
2023/01/11 09:07:55;;;;;;;72.60;6.82;;;7.40;99.90;;;;;;4977254;28;20110;-68
2023/01/11 09:10:25;;;;;;;65.43;8.02;;;7.40;99.90;;;;;;4977837;28;20052;-68
2023/01/11 09:12:51;;;;;;;42.17;6.47;;;7.40;99.90;;;;;;4977478;28;20026;-68
2023/01/11 09:15:16;;;;;;;50.38;6.90;;;7.40;99.90;;;;;;4977606;28;20077;-68
2023/01/11 09:17:42;;;;;;;77.88;8.20;;;7.40;99.90;;;;;;4977392;28;20031;-68
2023/01/11 09:20:09;;;;;;;62.10;7.60;;;7.40;99.90;;;;;;4977379;28;20159;-68
2023/01/11 09:22:35;;;;;;;60.25;7.20;;;7.40;99.90;;;;;;4977156;28;20026;-68
2023/01/11 09:25:00;;;;;;;83.70;8.48;;;7.50;99.90;;;;;;4977116;28;20049;-68
2023/01/11 09:27:26;;;;;;;43.30;6.47;;;7.50;99.90;;;;;;4977130;28;20475;-68
2023/01/11 09:29:51;;;;;;;75.03;7.15;;;7.50;99.90;;;;;;4977445;28;20038;-68
2023/01/11 09:32:17;;;;;;;60.55;7.50;;;7.50;99.90;;;;;;4977020;28;20474;-68
2023/01/11 09:34:44;;;;;;;63.85;6.45;;;7.60;99.90;;;;;;4977323;28;20041;-68
2023/01/11 09:37:10;;;;;;;58.75;7.00;;;7.60;99.90;;;;;;4975917;28;20518;-68
2023/01/11 09:39:36;;;;;;;63.33;7.18;;;7.60;99.90;;;;;;4977035;28;20039;-68
2023/01/11 09:42:23;;;;;;;54.50;6.47;;;7.70;99.90;;;;;;4976759;28;20034;-68
2023/01/11 09:45:04;;;;;;;65.00;6.13;;;7.70;99.90;;;;;;4977315;28;20561;-68
2023/01/11 09:47:50;;;;;;;59.40;6.43;;;7.70;99.90;;;;;;4977151;28;20078;-68
2023/01/11 09:50:22;;;;;;;43.47;6.53;;;7.80;99.90;;;;;;4977140;28;20023;-68
2023/01/11 09:52:56;;;;;;;56.20;7.50;;;7.70;99.90;;;;;;4976763;28;20457;-68
2023/01/11 09:55:41;;;;;;;36.67;5.43;;;7.70;99.90;;;;;;4976619;28;20027;-68
2023/01/11 09:58:23;;;;;;;47.22;5.50;;;7.70;99.90;;;;;;4976488;28;20088;-68
2023/01/11 10:00:53;;;;;;;47.03;5.85;;;7.70;99.90;;;;;;4976577;28;20038;-67
2023/01/11 10:04:08;;;;;;;50.22;6.18;;;7.70;99.90;;;;;;4976376;28;20019;-68
2023/01/11 10:07:13;;;;;;;48.03;7.38;;;7.70;99.90;;;;;;4976763;28;20073;-68
2023/01/11 10:09:44;;;;;;;58.85;7.90;;;7.70;99.90;;;;;;4976733;28;20023;-68
2023/01/11 10:12:30;;;;;;;60.78;6.30;;;7.60;99.90;;;;;;4976196;28;20019;-68
2023/01/11 10:15:37;;;;;;;53.75;6.00;;;7.70;99.90;;;;;;4976640;28;20030;-68
2023/01/11 10:18:12;;;;;;;50.20;6.05;;;7.60;99.90;;;;;;4955084;29;20042;-68
2023/01/11 10:20:46;;;;;;;50.80;6.47;;;7.70;99.90;;;;;;4954798;29;20515;-68
2023/01/11 10:23:31;;;;;;;;;;;7.60;99.90;;;;;;4967751;28;20121;-68
2023/01/11 10:26:03;;;;;;;67.30;5.88;;;7.70;99.90;;;;;;4976202;28;19906;-68
2023/01/11 10:29:21;;;;;;;61.58;6.63;;;7.60;99.90;;;;;;4976764;28;20475;-68
2023/01/11 10:40:37;;;;;;;73.88;8.75;;;7.90;99.90;;;;;;4975977;28;20561;-68
2023/01/11 10:43:15;;;;;;;58.40;5.45;;;8.00;99.90;;;;;;4974248;28;20058;-68
2023/01/11 10:46:07;;;;;;;58.00;7.45;;;8.10;99.90;;;;;;4976087;28;20426;-68
2023/01/11 10:48:36;;;;;;;61.65;6.30;;;8.10;99.90;;;;;;4973142;28;20059;-68
2023/01/11 10:51:26;;;;;;;46.33;6.63;;;8.20;99.90;;;;;;4975606;28;20109;-68
2023/01/11 10:54:12;;;;;;;53.35;7.65;;;8.30;99.90;;;;;;4974466;28;20035;-68
2023/01/11 10:57:13;;;;;;;55.25;8.02;;;8.40;99.90;;;;;;4975805;28;20023;-68
2023/01/11 11:00:03;;;;;;;47.78;6.30;;;8.40;99.90;;;;;;4975773;28;20219;-68
2023/01/11 11:02:54;;;;;;;36.60;5.97;;;8.50;99.90;;;;;;4975600;28;20050;-68
2023/01/11 11:05:40;;;;;;;27.88;4.40;;;8.60;99.90;;;;;;4975631;28;20046;-68
2023/01/11 11:08:27;;;;;;;49.55;6.82;;;8.60;99.90;;;;;;4974883;28;20041;-69
2023/01/11 11:11:00;;;;;;;42.40;7.97;;;8.70;99.90;;;;;;4975411;28;20517;-68
2023/01/11 11:13:48;;;;;;;48.70;6.47;;;8.70;99.90;;;;;;4975248;28;20534;-68
2023/01/11 11:16:22;;;;;;;45.80;6.70;;;8.80;99.90;;;;;;4975476;28;20443;-68
2023/01/11 11:18:54;;;;;;;53.88;5.72;;;8.90;99.90;;;;;;4975519;28;20486;-68
2023/01/11 11:21:31;;;;;;;46.15;6.05;;;8.90;99.90;;;;;;4975420;28;20114;-68
2023/01/11 11:24:13;;;;;;;60.22;6.10;;;8.90;99.90;;;;;;4975293;28;20023;-68
2023/01/11 11:26:43;;;;;;;48.63;6.82;;;8.90;99.90;;;;;;4975251;28;20035;-68
2023/01/11 11:29:18;;;;;;;50.75;6.13;;;8.90;99.90;;;;;;4975462;28;20037;-68
2023/01/11 11:31:45;;;;;;;58.15;6.85;;;8.90;99.90;;;;;;4975089;28;20089;-68
2023/01/11 11:34:19;;;;;;;61.83;6.35;;;8.80;99.90;;;;;;4975222;28;20037;-68
2023/01/11 11:36:50;;;;;;;49.40;6.65;;;8.80;99.90;;;;;;4975167;28;20085;-68
2023/01/11 11:39:23;;;;;;;46.30;5.90;;;8.80;99.90;;;;;;4975272;28;20114;-69
2023/01/11 11:41:55;;;;;;;49.47;6.70;;;8.80;99.90;;;;;;4974561;28;20491;-68
2023/01/11 11:44:25;;;;;;;81.63;8.75;;;8.80;99.90;;;;;;4975227;28;20027;-68
2023/01/11 11:46:58;;;;;;;61.38;7.45;;;8.80;99.90;;;;;;4975099;28;20023;-68
2023/01/11 11:49:24;;;;;;;35.72;6.20;;;8.80;99.90;;;;;;4975053;28;20470;-68
2023/01/11 11:51:50;;;;;;;40.15;6.25;;;8.80;99.90;;;;;;4974471;28;20038;-68
2023/01/11 11:54:26;;;;;;;55.22;6.45;;;8.90;99.90;;;;;;4974858;28;20042;-68
2023/01/11 11:56:53;;;;;;;80.50;7.25;;;9.00;99.90;;;;;;4975213;28;20029;-68
2023/01/11 11:59:24;;;;;;;38.05;5.13;;;9.00;99.90;;;;;;4974704;28;20031;-68
2023/01/11 12:02:04;;;;;;;43.72;6.53;;;9.00;99.90;;;;;;4974592;28;20524;-68
2023/01/11 12:04:46;;;;;;;58.53;9.52;;;8.90;99.90;;;;;;4974819;28;20018;-68
2023/01/11 12:07:14;;;;;;;41.13;6.22;;;8.90;99.90;;;;;;4974728;28;20023;-68
2023/01/11 12:09:47;;;;;;;49.17;7.47;;;8.90;99.90;;;;;;4974553;28;20077;-68
2023/01/11 12:12:17;;;;;;;45.30;6.73;;;8.90;99.90;;;;;;4974887;28;20031;-68
2023/01/11 12:14:42;;;;;;;39.03;6.03;;;8.90;99.90;;;;;;4974995;28;20034;-68
2023/01/11 12:17:23;;;;;;;67.55;7.70;;;8.90;99.90;;;;;;4974541;28;20109;-68
2023/01/11 12:19:49;;;;;;;63.95;7.82;;;8.90;99.90;;;;;;4977527;28;20037;-68
2023/01/11 12:22:21;;;;;;;52.78;6.45;;;8.90;99.90;;;;;;4978514;28;20030;-68
2023/01/11 12:25:06;;;;;;;64.93;7.28;;;8.90;99.90;;;;;;4978274;28;20030;-68
2023/01/11 12:28:27;;;;;;;60.45;7.47;;;8.90;99.90;;;;;;4978424;28;20029;-68
2023/01/11 12:31:51;;;;;;;46.00;5.97;;;8.90;99.90;;;;;;4966524;28;20035;-69
2023/01/11 12:34:22;;;;;;;73.97;8.52;;;8.80;99.90;;;;;;4934703;29;20520;-68
2023/01/11 12:37:06;;;;;;;51.33;8.73;;;8.90;99.90;;;;;;4958556;28;20451;-68
2023/01/11 12:40:00;;;;;;;57.42;9.02;;;8.90;99.90;;;;;;4958913;28;20027;-68
2023/01/11 12:42:59;;;;;;;59.97;7.88;;;9.00;99.90;;;;;;4958797;28;20038;-68
2023/01/11 12:45:30;;;;;;;45.90;6.65;;;9.00;99.90;;;;;;4974465;28;20031;-68
2023/01/11 12:48:06;;;;;;;50.78;7.93;;;9.10;99.90;;;;;;4977804;28;20023;-68
2023/01/11 12:50:36;;;;;;;56.70;6.38;;;9.10;99.90;;;;;;4977923;28;20026;-68
2023/01/11 12:53:32;;;;;;;45.63;5.85;;;9.10;99.90;;;;;;4977679;28;20089;-68
2023/01/11 12:56:15;;;;;;;42.58;6.20;;;9.20;99.90;;;;;;4978275;28;20479;-68
2023/01/11 12:59:08;;;;;;;40.88;7.30;;;9.10;99.90;;;;;;4977683;28;20062;-68
2023/01/11 13:01:56;;;;;;;48.55;6.70;;;9.10;99.90;;;;;;4977908;28;20474;-68
2023/01/11 13:04:27;;;;;;;33.78;5.40;;;9.30;99.90;;;;;;4977903;28;20037;-68
2023/01/11 13:07:00;;;;;;;38.53;4.93;;;9.20;99.90;;;;;;4977442;28;20023;-68
2023/01/11 13:09:34;;;;;;;49.72;6.57;;;9.30;99.90;;;;;;4977871;28;20027;-68
2023/01/11 13:12:03;;;;;;;65.18;8.05;;;9.20;99.90;;;;;;4977413;28;20038;-68
2023/01/11 13:14:31;;;;;;;66.50;7.43;;;9.10;99.90;;;;;;4977310;28;20062;-68
2023/01/11 13:17:38;;;;;;;59.92;7.18;;;9.10;99.90;;;;;;4976874;28;20074;-68
2023/01/11 13:20:39;;;;;;;51.08;6.05;;;9.30;99.90;;;;;;4977053;28;20050;-68
2023/01/11 13:23:13;;;;;;;49.53;6.47;;;9.40;99.90;;;;;;4977557;28;20126;-68
2023/01/11 13:25:43;;;;;;;46.47;7.05;;;9.60;99.90;;;;;;4977368;28;20029;-68
2023/01/11 13:28:32;;;;;;;50.20;7.18;;;9.70;99.90;;;;;;4977199;28;20026;-68
2023/01/11 13:31:01;;;;;;;44.78;6.47;;;9.80;99.90;;;;;;4976494;28;20019;-68
2023/01/11 13:33:29;;;;;;;51.80;6.70;;;9.60;99.90;;;;;;4977039;28;20026;-69
2023/01/11 13:36:14;;;;;;;73.63;7.00;;;9.70;99.90;;;;;;4977192;28;20022;-68
2023/01/11 13:38:53;;;;;;;49.88;7.05;;;9.60;99.90;;;;;;4977424;28;20042;-68
2023/01/11 13:41:27;;;;;;;56.15;7.00;;;9.60;99.90;;;;;;4977128;28;20062;-68